Station MZXC1 - 9415102 - Martinez-Amorco Pier, CA Image indicating link to RSS feed of recent meteorological observations for station MZXC1


Conditions at MZXC1 as of
0354 GMT on 05/30/2024:
     

Click on the graph icon in the table below to see a time series plot of the last five days of that observation.

5-day plot - Wind Direction Wind Direction (WDIR): W ( 280 deg true )
5-day plot - Wind Speed Wind Speed (WSPD): 8.0 kts
5-day plot - Wind Gust Wind Gust (GST): 11.1 kts
5-day plot - Atmospheric Pressure Atmospheric Pressure (PRES):29.99 in
5-day plot - Air Temperature Air Temperature (ATMP): 70.7 °F
5-day plot - Water Temperature Water Temperature (WTMP): 65.3 °F
5-day plot - Wind Speed at 10 Meters Wind Speed at 10 meters (WSPD10M): 9.7 kts
5-day plot - Wind Speed at 20 Meters Wind Speed at 20 meters (WSPD20M): 9.7 kts
5-day plot -  Wind Speed, Wind Gust and Atmospheric Pressure Combined plot of Wind Speed, Gust, and Air Pressure
NOS Water Level Observation Network Water Level
Previous observations
TIME
(GMT)
5-day plot - Wind Direction
WDIR
 
5-day plot - Wind Speed
WSPD
kts
5-day plot - Wind Gust
GST
kts
5-day plot - Wave Height
WVHT
ft
5-day plot - Dominant Wave Period
DPD
sec
5-day plot - Average Wave Period
APD
sec
5-day plot - Mean Wave Direction
MWD
 
5-day plot - Atmospheric Pressure
PRES
in
5-day plot - Pressure Tendency
PTDY
in
5-day plot - Air Temperature
ATMP
°F
5-day plot - Water Temperature
WTMP
°F
5-day plot - Dew Point
DEWP
°F
5-day plot - Salinity
SAL
psu
5-day plot - Visibility
VIS
nmi
5-day plot - Tide (above MLLW)
TIDE
ft
2024-05-30 0348 W 8.0 11.1----29.99- 71.1 65.3----
2024-05-30 0342 W 11.1 12.0----29.99- 71.4 65.3----
2024-05-30 0336 W 9.9 13.0----29.99- 71.2 65.5----
2024-05-30 0330 W 11.1 12.0----29.99- 72.1 65.5----
2024-05-30 0324 W 11.1 12.0----29.99- 71.8 65.5----
2024-05-30 0318WNW 11.1 12.0----29.99- 72.5 65.5----
2024-05-30 0312WNW 11.1 12.0----29.99- 73.2 65.5----
2024-05-30 0306WNW 11.1 12.0----29.99- 72.9 65.5----
2024-05-30 0300 W 11.1 12.0----29.99-0.02 73.0 65.5----
2024-05-30 0254 W 9.9 13.0----29.99- 73.0 65.7----
2024-05-30 0248WNW 12.0 14.0----29.99- 73.4 65.7----
2024-05-30 0242WNW 12.0 14.0----29.99- 73.6 65.8----
2024-05-30 0236WNW 12.0 13.0----29.99- 73.9 65.7----
2024-05-30 0230WNW 13.0 14.0----29.99- 74.5 65.7----
2024-05-30 0224WNW 12.0 14.0----29.99- 74.5 65.7----
2024-05-30 0218WNW 13.0 14.0----29.99- 74.5 65.7----
2024-05-30 0212WNW 14.0 15.0----29.99- 74.5 65.7----
2024-05-30 0206WNW 13.0 15.0----29.99- 74.5 65.7----
2024-05-30 0200WNW 13.0 14.0----29.99-0.03 74.3 65.8----
2024-05-30 0154WNW 13.0 15.0----29.99- 74.7 65.8----
2024-05-30 0148 W 13.0 15.0----29.99- 74.5 65.8----
2024-05-30 0142WNW 14.0 15.9----29.99- 75.2 66.0----
2024-05-30 0136WNW 15.0 15.9----29.99- 75.6 66.0----
2024-05-30 0130WNW 15.0 17.1----30.00- 75.7 66.2----
2024-05-30 0124WNW 15.0 15.9----29.99- 76.5 66.2----
2024-05-30 0118WNW 15.0 15.9----29.99- 76.6 66.4----
2024-05-30 0112WNW 12.0 14.0----30.00- 77.5 66.4----
2024-05-30 0106WNW 12.0 13.0----30.00- 77.4 66.6----
2024-05-30 0100WNW 13.0 15.0----30.00-0.04 77.5 66.7----
2024-05-30 0054WNW 14.0 15.0----30.00- 77.5 66.9----
2024-05-30 0048WNW 13.0 15.0----30.00- 77.5 67.1----
2024-05-30 0042WNW 12.0 14.0----30.00- 77.9 67.3----
2024-05-30 0036WNW 12.0 14.0----30.01- 77.0 67.6----
2024-05-30 0030WNW 12.0 14.0----30.01- 77.7 67.6----
2024-05-30 0024WNW 13.0 14.0----30.01- 78.1 67.8----
2024-05-30 0018WNW 13.0 15.9----30.01- 78.1 67.6----
2024-05-30 0012WNW 13.0 15.0----30.01- 78.6 67.6----
2024-05-30 0006WNW 13.0 14.0----30.01- 78.6 67.6----
2024-05-30 0000WNW 13.0 15.9----30.01-0.05 78.3 67.6----
2024-05-29 2354WNW 14.0 17.1----30.01- 78.6 67.6----
2024-05-29 2348WNW 13.0 15.9----30.01-- 67.8----
2024-05-29 2342WNW 14.0 15.0----30.01-- 68.0----
2024-05-29 2336WNW 9.9 12.0----30.01-- 68.0----
2024-05-29 2330WNW 11.1 13.0----30.01- 79.7 67.8----
2024-05-29 2324WNW 12.0 14.0----30.01- 79.7 67.8----
2024-05-29 2318WNW 13.0 14.0----30.02- 79.0 67.8----
2024-05-29 2312WNW 12.0 12.0----30.02- 79.3 67.8----
2024-05-29 2306WNW 11.1 12.0----30.02- 79.3 67.8----
2024-05-29 2300WNW 9.9 11.1----30.02-0.06 79.5 67.8----
2024-05-29 2254WNW 9.9 13.0----30.02- 78.3 67.8----
2024-05-29 2248WNW 11.1 12.0----30.02- 79.0 67.8----
2024-05-29 2242WNW 11.1 12.0----30.02- 79.2 67.6----
2024-05-29 2236WNW 9.9 11.1----30.03- 78.4 67.6----
2024-05-29 2230WNW 8.9 11.1----30.03- 78.8 67.5----
2024-05-29 2224WNW 9.9 11.1----30.03- 78.1 67.5----
2024-05-29 2218WNW 9.9 12.0----30.03- 77.5 67.3----
2024-05-29 2212WNW 11.1 11.1----30.03- 77.9 67.3----
2024-05-29 2206WNW 9.9 11.1----30.04- 77.7 67.1----
2024-05-29 2200WNW 8.9 11.1----30.04-0.05 77.5 67.1----
2024-05-29 2154WNW 9.9 11.1----30.04- 77.0 66.9----
2024-05-29 2148WNW 8.9 11.1----30.04- 77.2 66.9----
2024-05-29 2142WNW 8.0 9.9----30.04- 77.2 66.7----
2024-05-29 2136WNW 8.9 9.9----30.04- 76.8 66.6----
2024-05-29 2130WNW 9.9 11.1----30.05- 76.8 66.6----
2024-05-29 2124WNW 8.9 11.1----30.05- 76.5 66.4----
2024-05-29 2118WNW 8.0 8.9----30.05- 76.1 66.4----
2024-05-29 2112 W 8.0 9.9----30.06- 75.9 66.2----
2024-05-29 2106WNW 8.0 9.9----30.06- 75.6 66.2----
2024-05-29 2100WNW 8.9 9.9----30.06-0.03 75.2 66.2----
2024-05-29 2054WNW 8.9 11.1----30.06- 75.2 66.0----
2024-05-29 2048WNW 9.9 11.1----30.06-- 66.0----
2024-05-29 2042WNW 9.9 13.0----30.06-- 66.0----
2024-05-29 2036WNW 12.0 13.0----30.06-- 65.8----
2024-05-29 2030WNW 9.9 12.0----30.07- 73.6 65.8----
2024-05-29 2024WNW 9.9 12.0----30.07- 73.6 65.8----
2024-05-29 2018 NW 8.0 11.1----30.07- 72.9 65.8----
2024-05-29 2012 NW 8.9 11.1----30.07- 72.9 65.7----
2024-05-29 2006WNW 8.0 9.9----30.08- 72.9 65.7----
2024-05-29 2000WNW 8.0 9.9----30.08-0.02 72.3 65.7----
2024-05-29 1954WNW 8.9 9.9----30.08- 72.3 65.5----
2024-05-29 1948 W 8.9 11.1----30.08- 71.2 65.5----
2024-05-29 1942WNW 9.9 12.0----30.08- 71.2 65.5----
2024-05-29 1936WNW 11.1 12.0----30.08- 71.1 65.3----
2024-05-29 1930WNW 12.0 13.0----30.08- 71.1 65.3----
2024-05-29 1924WNW 11.1 13.0----30.09- 70.3 65.5----
2024-05-29 1918WNW 12.0 13.0----30.09- 70.0 65.5----
2024-05-29 1912WNW 11.1 13.0----30.09- 70.0 65.5----
2024-05-29 1906WNW 11.1 13.0----30.09- 69.4 65.3----
2024-05-29 1900WNW 12.0 14.0----30.09- 69.1 65.3----
2024-05-29 1854WNW 12.0 13.0----30.09- 68.9 65.3----
2024-05-29 1848WNW 12.0 14.0----30.09- 68.4 65.3----
2024-05-29 1842 NW 12.0 14.0----30.09- 68.2 65.1----
2024-05-29 1836 NW 12.0 14.0----30.09- 67.6 65.1----
2024-05-29 1830WNW 12.0 13.0----30.09- 67.3 65.1----
2024-05-29 1824WNW 11.1 12.0----30.09- 66.9 64.9----
2024-05-29 1818WNW 12.0 13.0----30.09- 66.4 64.9----
2024-05-29 1812WNW 12.0 14.0----30.09- 66.0 64.9----
2024-05-29 1806WNW 12.0 14.0----30.09- 65.8 64.8----
2024-05-29 1800WNW 12.0 14.0----30.09-0.01 65.3 64.8----
2024-05-29 1754WNW 12.0 14.0----30.09- 65.1 64.8----
2024-05-29 1748 NW 13.0 15.0----30.09- 64.8 64.8----
2024-05-29 1742WNW 12.0 14.0----30.09- 64.6 64.8----
2024-05-29 1736 NW 13.0 14.0----30.09- 64.4 64.6----
2024-05-29 1730 NW 12.0 13.0------------
2024-05-29 1724WNW 12.0 13.0------------
2024-05-29 1718WNW 9.9 12.0----30.10-- 64.6----
2024-05-29 1712WNW 11.1 12.0----30.10-- 64.4----
2024-05-29 1706 NW 9.9 12.0----30.10-- 64.4----
2024-05-29 1700WNW 9.9 12.0----30.10+0.01 62.8 64.4----
2024-05-29 1654WNW 9.9 13.0----30.10- 62.4 64.4----
2024-05-29 1648 NW 9.9 12.0------- 64.4----
2024-05-29 1642 NW 11.1 13.0------- 64.2----
2024-05-29 1636 NW 12.0 13.0------- 64.2----
2024-05-29 1630 NW 11.1 12.0------ 61.5-----
2024-05-29 1624WNW 11.1 14.0------ 61.2-----
2024-05-29 1618 NW 12.0 14.0------------
2024-05-29 1612WNW 12.0 14.0------------
2024-05-29 1606 NW 12.0 14.0------------
2024-05-29 1600WNW 12.0 14.0------ 60.3-----
2024-05-29 1554WNW 11.1 13.0------ 60.1-----
2024-05-29 1548WNW 11.1 12.0----30.11-- 64.0----
2024-05-29 1542WNW 11.1 12.0----30.10-- 64.0----
2024-05-29 1536WNW 12.0 13.0----30.10-- 64.0----
2024-05-29 1530WNW 11.1 12.0------- 64.0----
2024-05-29 1524WNW 9.9 11.1------- 64.0----
2024-05-29 1518 W 8.0 9.9----30.10- 60.1 64.0----
2024-05-29 1512WNW 8.9 9.9----30.10- 59.9 64.0----
2024-05-29 1506WNW 8.9 11.1----30.10- 59.7 64.0----
2024-05-29 1500 W 8.0 11.1----30.10+0.04 59.7 64.0----
2024-05-29 1454WNW 8.0 12.0----30.10- 59.7 64.0----
2024-05-29 1448 W 6.0 8.9----30.10-- 64.0----
2024-05-29 1442WSW 4.1 8.9----30.10-- 63.9----
2024-05-29 1436WSW 5.1 8.9----30.10-- 63.9----
2024-05-29 1430 SW 4.1 8.0----30.10- 59.5 63.9----
2024-05-29 1424 SW 5.1 8.9----30.09- 59.4 63.9----
2024-05-29 1418 W 7.0 12.0----30.09- 59.4 63.9----
2024-05-29 1412 W 8.0 8.9----30.09- 59.2 64.0----
2024-05-29 1406WSW 7.0 8.9----30.09- 59.0 63.9----
2024-05-29 1400WSW 7.0 9.9----30.09+0.04 59.0 63.9----
2024-05-29 1354 W 8.0 13.0----30.09- 58.8 64.0----
2024-05-29 1348 W 8.0 12.0----30.09- 59.0 64.0----
2024-05-29 1342 W 8.9 13.0----30.09- 58.8 64.0----
2024-05-29 1336 W 11.1 14.0----30.09- 58.8 64.0----
2024-05-29 1330 W 11.1 13.0----30.09- 58.8 64.0----
2024-05-29 1324 W 13.0 14.0----30.09- 58.5 64.0----
2024-05-29 1318 W 11.1 13.0----30.08- 58.6 64.0----
2024-05-29 1312 W 11.1 12.0----30.08- 58.6 64.0----
2024-05-29 1306WSW 9.9 11.1----30.08- 58.8 64.0----
2024-05-29 1300WSW 9.9 13.0----30.08+0.04 59.0 64.0----
2024-05-29 1254 W 11.1 13.0----30.08- 58.8 64.0----
2024-05-29 1248 W 9.9 12.0----30.08- 59.0 64.0----
2024-05-29 1242WSW 8.0 9.9----30.08- 59.0 64.0----
2024-05-29 1236WSW 7.0 8.9----30.07- 58.8 64.0----
2024-05-29 1230WSW 8.9 12.0----30.07- 58.8 64.0----
2024-05-29 1224WSW 9.9 13.0----30.07- 58.8 64.0----
2024-05-29 1218WSW 9.9 14.0----30.07- 59.0 64.0----
2024-05-29 1212WSW 9.9 12.0----30.07- 59.0 64.0----
2024-05-29 1206WSW 11.1 14.0----30.06- 58.6 64.0----
2024-05-29 1200WSW 12.0 15.0----30.06+0.02 58.8 64.2----
2024-05-29 1154WSW 13.0 15.0----30.06- 59.0 64.2----
2024-05-29 1148WSW 14.0 15.9----30.06-- 64.2----
2024-05-29 1142WSW 12.0 15.9----30.06-- 64.2----
2024-05-29 1136WSW 14.0 15.9----30.06-- 64.2----
2024-05-29 1130WSW 12.0 17.1----30.06- 58.8 64.2----
2024-05-29 1124WSW 14.0 15.9----30.06- 58.5 64.2----
2024-05-29 1118WSW 14.0 17.1----30.06- 58.6 64.2----
2024-05-29 1112WSW 15.0 17.1----30.06- 58.6 64.2----
2024-05-29 1106WSW 13.0 15.9----30.05- 58.8 64.2----
2024-05-29 1100WSW 13.0 15.9----30.06+0.03 58.8 64.2----
2024-05-29 1054WSW 12.0 17.1----30.05- 59.0 64.2----
2024-05-29 1048 SW 12.0 15.9----30.05- 59.4 64.2----
2024-05-29 1042 SW 9.9 15.9----30.05- 59.7 64.2----
2024-05-29 1036 SW 14.0 21.0----30.05- 60.1 64.2----
2024-05-29 1030WSW 14.0 19.0----30.04- 60.1 64.2----
2024-05-29 1024WSW 15.0 21.0----30.04- 60.4 64.2----
2024-05-29 1018WSW 14.0 18.1----30.04- 60.6 64.2----
2024-05-29 1012WSW 14.0 17.1----30.04- 60.8 64.4----
2024-05-29 1006 W 13.0 15.9----30.04- 60.8 64.4----
2024-05-29 1000 W 14.0 17.1----30.04+0.02 61.0 64.4----
2024-05-29 0954 W 12.0 17.1----30.04- 61.3 64.4----
2024-05-29 0948WSW 11.1 17.1----30.04- 61.5 64.4----
2024-05-29 0942 SW 12.0 14.0----30.04- 61.2 64.4----
2024-05-29 0936WSW 9.9 14.0----30.05- 61.5 64.4----
2024-05-29 0930WSW 12.0 14.0----30.04- 61.5 64.4----
2024-05-29 0924WSW 12.0 17.1----30.04- 60.6 64.4----
2024-05-29 0918WSW 12.0 15.9----30.04- 61.3 64.4----
2024-05-29 0912WSW 12.0 14.0----30.04- 61.5 64.4----
2024-05-29 0906WSW 11.1 13.0----30.04- 61.7 64.4----
2024-05-29 0900WSW 8.0 9.9----30.04+0.02 62.1 64.4----
2024-05-29 0854 SW 7.0 12.0----30.04- 62.2 64.4----
2024-05-29 0848WSW 11.1 14.0----30.04- 62.4 64.4----
2024-05-29 0842WSW 11.1 13.0----30.04- 62.2 64.4----
2024-05-29 0836 SW 8.0 11.1----30.04- 62.1 64.4----
2024-05-29 0830 SW 8.0 12.0----30.03- 62.2 64.4----
2024-05-29 0824 SW 8.9 15.0----30.03- 62.2 64.6----
2024-05-29 0818WSW 13.0 17.1----30.03- 62.1 64.6----
2024-05-29 0812 SW 13.0 18.1----30.03- 62.1 64.6----
2024-05-29 0806WSW 14.0 15.9----30.03- 62.2 64.6----
2024-05-29 0800WSW 13.0 15.0----30.03- 61.9 64.8----
2024-05-29 0754 SW 12.0 15.9----30.03- 62.6 64.8----
2024-05-29 0748WSW 12.0 15.9----30.03- 62.4 64.8----
2024-05-29 0742WSW 14.0 19.0----30.03- 62.4 64.8----
2024-05-29 0736WSW 15.0 19.0----30.03- 63.3 64.8----
2024-05-29 0730 SW 12.0 18.1----30.03- 63.3 64.8----
2024-05-29 0724 SW 15.9 20.0----30.03- 63.9 64.8----
2024-05-29 0718 SW 15.0 20.0----30.03- 63.5 64.8----
2024-05-29 0712WSW 18.1 21.0----30.03- 63.3 64.8----
2024-05-29 0706WSW 18.1 19.0----30.03- 63.1 64.8----
2024-05-29 0700WSW 17.1 20.0----30.02+0.00 63.9 64.8----
2024-05-29 0654WSW 19.0 21.0----30.02- 63.9 64.8----
2024-05-29 0648WSW 18.1 19.0----30.02- 64.2 64.8----
2024-05-29 0642WSW 15.0 18.1----30.02- 64.9 64.8----
2024-05-29 0636WSW 12.0 15.0----30.02- 65.5 64.8----
2024-05-29 0630 SW 12.0 13.0----30.02- 65.7 64.8----
2024-05-29 0624 SW 9.9 13.0----30.02- 65.7 64.8----
2024-05-29 0618SSW 8.0 11.1----30.03- 66.0 64.8----
2024-05-29 0612SSW 8.9 12.0----30.03- 65.8 64.8----
2024-05-29 0606 SW 8.9 13.0----30.03- 65.8 64.8----
2024-05-29 0600 SW 12.0 15.9----30.02+0.01 66.0 64.8----
2024-05-29 0554 SW 9.9 15.9----30.02- 65.5 64.8----
2024-05-29 0548 SW 9.9 14.0----30.03- 64.9 64.8----
2024-05-29 0542WSW 8.9 12.0----30.03- 64.9 64.8----
2024-05-29 0536 SW 8.9 15.0----30.03- 65.7 64.9----
2024-05-29 0530 SW 12.0 15.0----30.02- 65.7 64.9----
2024-05-29 0524 SW 13.0 17.1----30.02- 65.5 64.9----
2024-05-29 0518 SW 12.0 15.0----30.02- 65.3 64.9----
2024-05-29 0512 SW 9.9 13.0----30.03- 65.3 64.9----
2024-05-29 0506 SW 8.9 11.1----30.03- 65.3 64.9----
2024-05-29 0500--------- 65.3 64.9----
2024-05-29 0454--------- 65.5 64.9----
2024-05-29 0448WSW 11.1 13.0----30.02- 65.5-----
2024-05-29 0442WSW 9.9 12.0----30.03- 65.8-----
2024-05-29 0436 W 8.9 12.0----30.02- 66.0-----
2024-05-29 0430 W 7.0 9.9----30.02- 65.5 64.9----
2024-05-29 0424 W 8.0 9.9----30.02- 65.5 64.9----
2024-05-29 0418 SW 6.0 8.9----30.02- 66.4 64.9----
2024-05-29 0412 W 7.0 8.9----30.02- 66.0 64.9----
2024-05-29 0406 W 7.0 9.9----30.02- 66.6 64.9----
2024-05-29 0400 SW 8.0 13.0----30.01+0.01 66.6 64.9----
2024-05-29 0354 SW 8.9 14.0----30.01- 66.6 64.9----